Time;durP1;ratioP1;P1;durP2;ratioP2;P2;SDS_P1;SDS_P2;PMS_P1;PMS_P2;Temp;Humidity;BMP_temperature;BMP_pressure;BME280_temperature;BME280_humidity;BME280_pressure;Samples;Min_cycle;Max_cycle;Signal;HPM_P1;HPM_P2
2023/06/15 03:16:46;;;;;;;8.30;1.98;;;16.20;66.80;;;;;;6190568;22;89205;-78
2023/06/15 03:19:14;;;;;;;5.53;2.17;;;16.20;66.60;;;;;;6253606;22;88349;-77
2023/06/15 03:21:41;;;;;;;5.38;2.08;;;16.10;66.40;;;;;;6252379;22;87095;-81
2023/06/15 03:24:08;;;;;;;4.22;2.13;;;16.10;67.00;;;;;;6254099;22;86303;-80
2023/06/15 03:26:37;;;;;;;6.85;2.17;;;16.10;66.90;;;;;;6252539;22;87409;-81
2023/06/15 03:29:03;;;;;;;5.57;2.28;;;16.00;66.30;;;;;;6252988;22;88495;-82
2023/06/15 03:31:33;;;;;;;7.63;2.30;;;16.00;67.10;;;;;;6252888;22;87889;-80
2023/06/15 03:34:02;;;;;;;4.88;1.80;;;16.00;67.30;;;;;;6253015;22;87083;-79
2023/06/15 03:36:31;;;;;;;6.10;2.10;;;15.90;67.20;;;;;;6250076;22;88060;-79
2023/06/15 03:38:57;;;;;;;5.43;2.60;;;15.90;67.00;;;;;;6252238;22;88192;-78
2023/06/15 03:41:26;;;;;;;7.25;2.22;;;15.90;67.20;;;;;;6253840;22;87403;-80
2023/06/15 03:43:52;;;;;;;4.88;2.00;;;15.90;67.30;;;;;;6252529;22;86940;-78
2023/06/15 03:46:18;;;;;;;4.10;1.85;;;15.90;68.70;;;;;;6251943;22;88253;-79
2023/06/15 03:48:43;;;;;;;6.40;2.10;;;15.80;68.00;;;;;;6251240;22;87483;-80
2023/06/15 03:51:09;;;;;;;5.38;2.30;;;15.90;67.50;;;;;;6251746;22;87134;-82
2023/06/15 03:53:36;;;;;;;5.85;2.03;;;15.90;67.50;;;;;;6252002;22;87163;-79
2023/06/15 03:56:02;;;;;;;9.98;2.55;;;16.00;66.50;;;;;;6253269;22;88545;-79
2023/06/15 03:58:28;;;;;;;5.53;2.30;;;16.00;67.60;;;;;;6254344;22;89266;-80
2023/06/15 04:00:56;;;;;;;8.82;2.65;;;16.10;67.80;;;;;;6253599;22;87125;-81
2023/06/15 04:03:21;;;;;;;5.90;2.45;;;16.30;67.30;;;;;;6250267;22;87587;-81
2023/06/15 04:05:48;;;;;;;6.63;2.33;;;16.50;67.10;;;;;;6253519;22;88408;-81
2023/06/15 04:08:14;;;;;;;5.35;2.35;;;16.80;66.20;;;;;;6251188;22;87769;-81
2023/06/15 04:10:40;;;;;;;6.78;2.50;;;17.30;64.60;;;;;;6254621;22;87062;-79
2023/06/15 04:13:06;;;;;;;5.30;2.70;;;17.80;63.20;;;;;;6254418;22;86265;-80
2023/06/15 04:15:32;;;;;;;8.40;2.80;;;17.80;63.30;;;;;;6252491;22;88368;-81
2023/06/15 04:18:00;;;;;;;6.93;2.83;;;17.70;63.70;;;;;;6227016;22;87732;-80
2023/06/15 04:20:28;;;;;;;5.72;2.45;;;17.70;63.80;;;;;;6220384;22;87953;-81
2023/06/15 04:22:56;;;;;;;12.60;2.60;;;17.70;63.90;;;;;;6221080;22;87637;-81
2023/06/15 04:25:21;;;;;;;5.95;2.80;;;17.60;64.30;;;;;;6218767;22;88150;-81
2023/06/15 04:27:47;;;;;;;7.00;3.10;;;17.40;64.00;;;;;;6220266;22;88238;-78
2023/06/15 04:30:16;;;;;;;10.32;3.15;;;17.30;63.10;;;;;;6221364;22;87661;-81
2023/06/15 04:32:43;;;;;;;7.25;3.25;;;17.20;63.90;;;;;;6223106;22;87480;-78
2023/06/15 04:35:17;;;;;;;8.45;2.67;;;17.10;63.60;;;;;;6223310;22;88287;-78
2023/06/15 04:37:44;;;;;;;4.82;2.33;;;17.00;63.30;;;;;;6222705;22;86213;-76
2023/06/15 04:40:10;;;;;;;7.78;2.90;;;16.90;62.80;;;;;;6219973;22;86990;-78
2023/06/15 04:42:37;;;;;;;5.82;2.63;;;16.90;63.60;;;;;;6222640;22;87647;-78
2023/06/15 04:45:04;;;;;;;6.28;2.83;;;17.00;63.20;;;;;;6222315;22;89449;-77
2023/06/15 04:47:29;;;;;;;5.25;2.13;;;17.10;63.30;;;;;;6219856;22;88295;-77
2023/06/15 04:49:55;;;;;;;5.63;1.98;;;17.10;63.60;;;;;;6220830;22;87315;-76
2023/06/15 04:52:21;;;;;;;7.32;2.20;;;17.10;63.20;;;;;;6223713;22;87039;-75
2023/06/15 04:54:47;;;;;;;6.15;2.38;;;17.10;60.50;;;;;;6235184;22;87575;-73
2023/06/15 04:57:12;;;;;;;5.70;2.85;;;17.20;63.50;;;;;;6249538;22;87931;-74
2023/06/15 04:59:38;;;;;;;5.53;2.40;;;17.10;64.60;;;;;;6252425;22;87063;-76
2023/06/15 05:02:06;;;;;;;6.95;1.67;;;17.00;63.60;;;;;;6251253;22;86482;-76
2023/06/15 05:04:32;;;;;;;3.92;2.00;;;17.90;62.60;;;;;;6250570;22;89118;-73
2023/06/15 05:06:57;;;;;;;5.13;2.30;;;18.70;57.60;;;;;;6252545;22;87457;-73
2023/06/15 05:09:23;;;;;;;4.47;2.08;;;18.70;58.80;;;;;;6252589;22;88336;-73
2023/06/15 05:11:49;;;;;;;6.55;2.22;;;19.40;57.90;;;;;;6251662;22;87351;-73
2023/06/15 05:14:14;;;;;;;6.60;2.17;;;20.60;55.20;;;;;;6252864;22;87709;-74
2023/06/15 05:16:40;;;;;;;4.43;2.00;;;21.30;53.00;;;;;;6243132;22;87710;-75
2023/06/15 05:19:06;;;;;;;8.07;2.00;;;21.00;53.60;;;;;;6221108;22;87032;-74
2023/06/15 05:21:32;;;;;;;5.32;1.83;;;21.00;54.00;;;;;;6221982;22;87243;-73
2023/06/15 05:23:58;;;;;;;6.75;2.20;;;20.60;53.50;;;;;;6221204;22;87593;-73
2023/06/15 05:26:23;;;;;;;6.30;1.90;;;20.40;53.80;;;;;;6219636;22;87612;-74
2023/06/15 05:28:49;;;;;;;11.10;2.42;;;20.20;54.00;;;;;;6221790;22;87562;-73
2023/06/15 05:31:15;;;;;;;8.98;2.65;;;21.10;52.90;;;;;;6219442;22;87541;-74
2023/06/15 05:33:40;;;;;;;7.32;3.17;;;22.20;50.50;;;;;;6219938;22;89240;-74
2023/06/15 05:36:06;;;;;;;3.72;2.78;;;23.40;48.30;;;;;;6221451;22;88137;-73
2023/06/15 05:38:32;;;;;;;4.40;2.63;;;24.40;46.80;;;;;;6220951;22;87557;-73
2023/06/15 05:40:57;;;;;;;6.57;2.80;;;25.20;46.60;;;;;;6219555;22;87521;-73
2023/06/15 05:43:23;;;;;;;9.90;2.92;;;26.10;44.70;;;;;;6218068;22;88275;-73
2023/06/15 05:45:49;;;;;;;5.18;3.15;;;27.10;44.40;;;;;;6220138;22;87146;-70
2023/06/15 05:48:15;;;;;;;7.35;3.13;;;28.30;43.00;;;;;;6222633;22;87045;-72
2023/06/15 05:50:40;;;;;;;5.13;3.25;;;28.50;42.00;;;;;;6223281;22;86586;-73
2023/06/15 05:53:06;;;;;;;8.48;3.33;;;27.60;42.00;;;;;;6222326;22;87699;-72
2023/06/15 05:55:33;;;;;;;6.28;3.15;;;26.60;44.10;;;;;;6222374;22;87076;-72
2023/06/15 05:57:59;;;;;;;6.45;3.25;;;25.90;45.50;;;;;;6219322;22;88522;-73
2023/06/15 06:00:29;;;;;;;8.95;3.20;;;25.20;46.70;;;;;;6222983;22;87026;-72
2023/06/15 06:02:56;;;;;;;12.40;3.05;;;25.10;47.00;;;;;;6222265;22;87766;-72
2023/06/15 06:05:23;;;;;;;10.98;3.67;;;25.60;47.40;;;;;;6222134;22;88031;-73
2023/06/15 06:07:49;;;;;;;10.10;2.70;;;26.60;45.80;;;;;;6222680;22;87479;-72
2023/06/15 06:10:18;;;;;;;7.32;3.08;;;26.80;44.20;;;;;;6222573;22;87581;-72
2023/06/15 06:12:43;;;;;;;8.40;3.53;;;27.00;44.70;;;;;;6219827;22;88074;-72
2023/06/15 06:15:09;;;;;;;7.13;3.83;;;28.40;42.80;;;;;;6222074;22;87776;-72
2023/06/15 06:17:34;;;;;;;6.85;3.78;;;29.10;41.70;;;;;;6222518;22;87300;-72
2023/06/15 06:20:00;;;;;;;8.13;4.03;;;28.90;40.00;;;;;;6223156;22;87274;-72
2023/06/15 06:22:26;;;;;;;6.70;2.92;;;28.40;41.40;;;;;;6221717;22;89040;-71
2023/06/15 06:24:51;;;;;;;8.35;3.38;;;27.60;41.40;;;;;;6222715;22;88700;-71
2023/06/15 06:27:18;;;;;;;6.00;2.80;;;26.80;43.10;;;;;;6222400;22;87062;-73
2023/06/15 06:29:44;;;;;;;4.72;2.95;;;28.20;42.30;;;;;;6219735;22;87343;-72
2023/06/15 06:32:10;;;;;;;11.13;2.13;;;28.10;41.70;;;;;;6222208;22;87988;-71
2023/06/15 06:34:36;;;;;;;5.72;3.17;;;27.90;41.70;;;;;;6221385;22;87368;-71
2023/06/15 06:37:05;;;;;;;7.82;2.75;;;27.10;41.80;;;;;;6223125;22;87479;-74
2023/06/15 06:39:31;;;;;;;6.25;3.05;;;26.40;42.90;;;;;;6222387;22;86355;-71
2023/06/15 06:41:57;;;;;;;7.35;3.30;;;25.90;44.30;;;;;;6222566;22;87539;-72
2023/06/15 06:44:23;;;;;;;11.60;3.22;;;26.00;45.10;;;;;;6219183;22;87650;-72
2023/06/15 06:46:49;;;;;;;11.55;3.30;;;27.30;43.00;;;;;;6221957;22;88016;-72
2023/06/15 06:49:15;;;;;;;6.15;2.88;;;29.10;42.50;;;;;;6222321;22;86977;-73
2023/06/15 06:51:41;;;;;;;7.45;3.78;;;30.60;39.80;;;;;;6222153;22;88456;-74
2023/06/15 06:54:07;;;;;;;7.45;4.57;;;31.80;38.30;;;;;;6221117;22;87301;-73
2023/06/15 06:56:32;;;;;;;8.43;3.90;;;32.70;37.30;;;;;;6221865;22;87275;-73
2023/06/15 06:58:58;;;;;;;8.68;4.55;;;34.20;37.30;;;;;;6222599;22;87535;-73
2023/06/15 07:01:24;;;;;;;7.47;4.88;;;35.00;36.50;;;;;;6192807;22;88180;-74
2023/06/15 07:03:50;;;;;;;7.05;5.72;;;35.70;36.10;;;;;;6222383;22;87917;-73
2023/06/15 07:06:16;;;;;;;6.93;5.68;;;36.80;35.00;;;;;;6222120;22;86912;-74
2023/06/15 07:08:42;;;;;;;10.85;6.75;;;37.20;34.70;;;;;;6222460;22;87001;-73
2023/06/15 07:11:07;;;;;;;10.90;5.82;;;37.50;33.20;;;;;;6221358;22;88602;-72
2023/06/15 07:13:34;;;;;;;6.88;3.92;;;37.80;34.00;;;;;;6194828;22;88756;-72
2023/06/15 07:16:00;;;;;;;8.45;5.90;;;38.50;33.90;;;;;;6219908;22;87033;-73
2023/06/15 07:18:26;;;;;;;8.20;6.25;;;38.90;31.90;;;;;;6222201;22;87034;-73
2023/06/15 07:20:55;;;;;;;5.93;3.88;;;39.00;32.70;;;;;;6221893;22;88038;-72
2023/06/15 07:23:25;;;;;;;6.53;5.55;;;38.60;31.80;;;;;;6221820;22;87712;-73
2023/06/15 07:25:52;;;;;;;7.82;4.85;;;38.40;33.20;;;;;;6222233;22;86906;-73
2023/06/15 07:28:18;;;;;;;5.85;3.65;;;38.40;32.50;;;;;;6222542;22;87166;-73
2023/06/15 07:30:46;;;;;;;9.18;5.95;;;38.60;33.20;;;;;;6221610;22;88544;-73
2023/06/15 07:33:12;;;;;;;10.23;6.43;;;39.10;32.10;;;;;;6220053;22;88274;-72
2023/06/15 07:35:37;;;;;;;8.82;5.95;;;39.10;31.40;;;;;;6221177;22;87965;-73
2023/06/15 07:38:04;;;;;;;11.77;5.90;;;39.80;31.20;;;;;;6222312;22;87029;-73
2023/06/15 07:40:29;;;;;;;14.40;6.40;;;40.20;31.00;;;;;;6221677;22;88287;-72
2023/06/15 07:42:55;;;;;;;10.23;6.47;;;40.40;31.60;;;;;;6221699;22;87263;-72
2023/06/15 07:45:21;;;;;;;8.05;5.75;;;41.00;30.80;;;;;;6222265;22;87217;-73
2023/06/15 07:47:46;;;;;;;7.78;5.85;;;41.30;30.20;;;;;;6219669;22;86970;-73
2023/06/15 07:50:12;;;;;;;9.65;6.45;;;41.50;30.10;;;;;;6221904;22;88160;-74
2023/06/15 07:52:38;;;;;;;13.05;6.97;;;41.60;30.00;;;;;;6222007;22;87647;-71
2023/06/15 07:55:04;;;;;;;8.75;7.88;;;41.40;30.70;;;;;;6221744;22;87435;-71
2023/06/15 07:57:30;;;;;;;8.65;6.38;;;41.60;29.60;;;;;;6221806;22;87069;-73
2023/06/15 07:59:57;;;;;;;7.45;4.65;;;41.70;29.20;;;;;;6220813;22;88843;-72
2023/06/15 08:02:23;;;;;;;9.95;7.30;;;41.70;30.90;;;;;;6219398;22;88648;-72
2023/06/15 08:04:49;;;;;;;10.75;7.32;;;41.90;29.70;;;;;;6221524;22;87039;-72
2023/06/15 08:07:15;;;;;;;8.10;7.30;;;41.80;30.40;;;;;;6221923;22;86998;-72
2023/06/15 08:09:42;;;;;;;8.45;6.45;;;41.40;30.00;;;;;;6221757;22;87595;-72
2023/06/15 08:12:09;;;;;;;9.25;6.82;;;41.50;31.10;;;;;;6221199;22;87813;-72
2023/06/15 08:14:35;;;;;;;10.98;6.55;;;41.80;30.60;;;;;;6222159;22;87028;-72
2023/06/15 08:17:02;;;;;;;8.45;6.88;;;41.60;30.60;;;;;;6221276;22;86502;-73
2023/06/15 08:19:27;;;;;;;8.15;7.38;;;41.60;31.00;;;;;;6219547;22;87603;-73
2023/06/15 08:21:53;;;;;;;5.13;4.63;;;42.20;30.50;;;;;;6221335;22;87797;-71
2023/06/15 08:24:19;;;;;;;11.35;7.10;;;41.90;31.10;;;;;;6221108;22;88284;-73
2023/06/15 08:26:45;;;;;;;7.85;6.07;;;42.20;30.50;;;;;;6221826;22;86930;-71
2023/06/15 08:29:11;;;;;;;9.70;8.20;;;41.60;30.10;;;;;;6220869;22;87294;-73
2023/06/15 08:31:37;;;;;;;9.57;6.80;;;41.50;30.60;;;;;;6221431;22;87883;-73
2023/06/15 08:34:02;;;;;;;11.68;7.00;;;41.80;30.30;;;;;;6219071;22;87437;-72
2023/06/15 08:36:31;;;;;;;7.85;7.05;;;42.10;30.30;;;;;;6221720;22;87672;-72
2023/06/15 08:38:56;;;;;;;9.15;8.25;;;42.20;30.00;;;;;;6221774;22;87221;-73
2023/06/15 08:41:25;;;;;;;8.68;7.38;;;42.50;30.20;;;;;;6223189;22;86365;-72
2023/06/15 08:43:52;;;;;;;8.20;7.43;;;42.60;30.30;;;;;;6222164;22;86954;-72
2023/06/15 08:46:18;;;;;;;7.10;6.43;;;42.90;30.00;;;;;;6196103;22;87104;-73
2023/06/15 08:48:46;;;;;;;8.75;7.00;;;43.10;30.40;;;;;;6222085;22;88619;-71
2023/06/15 08:51:12;;;;;;;8.77;6.63;;;42.90;30.40;;;;;;6220207;22;88637;-74
2023/06/15 08:53:42;;;;;;;8.15;7.35;;;43.10;30.20;;;;;;6222681;22;87173;-73
2023/06/15 08:56:11;;;;;;;9.50;7.70;;;43.30;29.70;;;;;;6222559;22;87008;-73
2023/06/15 08:58:37;;;;;;;8.27;7.47;;;43.30;29.90;;;;;;6222422;22;87228;-73
2023/06/15 09:01:03;;;;;;;10.20;6.82;;;43.10;30.60;;;;;;6222880;22;87389;-73
2023/06/15 09:03:31;;;;;;;8.52;7.45;;;44.10;30.60;;;;;;6222324;22;87319;-74
2023/06/15 09:05:57;;;;;;;9.35;7.57;;;44.20;29.40;;;;;;6221462;22;86773;-73
2023/06/15 09:08:23;;;;;;;8.07;6.53;;;44.30;29.60;;;;;;6222255;22;88090;-72
2023/06/15 09:10:49;;;;;;;8.98;7.45;;;44.20;29.60;;;;;;6222398;22;87826;-71
2023/06/15 09:13:18;;;;;;;9.77;7.78;;;44.00;30.00;;;;;;6222641;22;87923;-72
2023/06/15 09:15:50;;;;;;;11.13;8.25;;;44.30;29.00;;;;;;6222747;22;87327;-72
2023/06/15 09:18:16;;;;;;;8.00;7.15;;;44.60;29.50;;;;;;6222349;22;88070;-72
2023/06/15 09:20:42;;;;;;;8.73;7.75;;;43.80;29.40;;;;;;6220149;22;87703;-73
2023/06/15 09:23:12;;;;;;;9.32;8.13;;;43.80;29.00;;;;;;6222795;22;87067;-72
2023/06/15 09:25:37;;;;;;;10.82;7.35;;;44.30;29.00;;;;;;6223639;22;87235;-71
2023/06/15 09:28:07;;;;;;;9.27;8.15;;;44.30;29.10;;;;;;6222187;22;88067;-71
2023/06/15 09:30:37;;;;;;;12.35;8.00;;;43.80;29.60;;;;;;6223072;22;87906;-72
2023/06/15 09:33:17;;;;;;;6.78;5.03;;;44.70;28.70;;;;;;6222863;22;86965;-71
2023/06/15 09:36:05;;;;;;;9.05;8.25;;;45.10;29.10;;;;;;6222203;22;87099;-72
2023/06/15 09:38:33;;;;;;;8.82;7.13;;;45.10;28.80;;;;;;6219093;22;88864;-71
2023/06/15 09:41:03;;;;;;;8.05;7.20;;;45.00;28.70;;;;;;6222264;22;88986;-72
2023/06/15 09:43:34;;;;;;;8.90;5.93;;;45.20;28.20;;;;;;6222734;22;87267;-71
2023/06/15 09:46:09;;;;;;;10.85;8.23;;;45.00;28.00;;;;;;6222973;22;86968;-74
2023/06/15 09:48:43;;;;;;;13.40;8.35;;;45.10;28.70;;;;;;6222728;22;87333;-71
2023/06/15 09:51:10;;;;;;;8.13;7.32;;;45.30;29.10;;;;;;6221822;22;87199;-71
2023/06/15 09:53:37;;;;;;;8.27;7.35;;;45.00;28.20;;;;;;6219904;22;87287;-72
2023/06/15 09:56:04;;;;;;;11.88;7.30;;;44.10;28.90;;;;;;6222851;22;86477;-71
2023/06/15 09:58:30;;;;;;;7.68;6.43;;;43.70;28.90;;;;;;6221811;22;87941;-72
2023/06/15 10:00:57;;;;;;;6.25;5.65;;;43.20;28.50;;;;;;6221609;22;87343;-72
2023/06/15 10:03:24;;;;;;;11.10;5.82;;;42.90;29.30;;;;;;6221528;22;88207;-71
2023/06/15 10:05:55;;;;;;;7.60;5.60;;;41.70;28.90;;;;;;6221442;22;87333;-72
2023/06/15 10:08:24;;;;;;;6.35;4.30;;;40.50;29.90;;;;;;6218759;22;87741;-70
2023/06/15 10:10:51;;;;;;;6.68;4.45;;;38.80;31.30;;;;;;6221145;22;87792;-71
2023/06/15 10:13:35;;;;;;;6.07;4.13;;;37.50;32.40;;;;;;6221060;22;86927;-72
2023/06/15 10:16:02;;;;;;;9.90;3.67;;;36.10;33.30;;;;;;6221685;22;86985;-75
2023/06/15 10:18:29;;;;;;;7.07;3.58;;;35.30;35.00;;;;;;6219169;22;88391;-73
2023/06/15 10:20:59;;;;;;;5.15;2.20;;;34.90;34.00;;;;;;6221249;22;88389;-70
2023/06/15 10:23:27;;;;;;;10.60;7.90;;;34.40;33.90;;;;;;6219214;22;87328;-72
2023/06/15 10:25:55;;;;;;;9.57;5.82;;;33.80;33.90;;;;;;6221094;22;87305;-72
2023/06/15 10:28:25;;;;;;;;;;;32.90;33.20;;;;;;6220919;22;88971;-71
2023/06/15 10:30:53;;;;;;;4.47;2.92;;;32.50;34.20;;;;;;6221936;22;88361;-69
2023/06/15 10:33:37;;;;;;;6.68;2.45;;;32.30;34.50;;;;;;6220790;22;87007;-71
2023/06/15 10:36:11;;;;;;;5.95;2.78;;;32.20;33.20;;;;;;6221102;22;87090;-72
2023/06/15 10:39:10;;;;;;;4.63;2.60;;;31.90;32.20;;;;;;6219697;22;87593;-72
2023/06/15 10:41:39;;;;;;;3.42;2.30;;;31.50;31.50;;;;;;6220099;22;87841;-70
2023/06/15 10:44:05;;;;;;;6.13;2.20;;;31.10;35.50;;;;;;6220350;22;87261;-70
2023/06/15 10:46:33;;;;;;;5.82;2.50;;;31.10;34.90;;;;;;6221498;22;86226;-71
2023/06/15 10:49:07;;;;;;;6.15;3.03;;;30.80;36.80;;;;;;6218302;22;88483;-71
2023/06/15 10:51:41;;;;;;;4.57;2.50;;;31.10;36.30;;;;;;6218982;22;88341;-70
2023/06/15 10:54:25;;;;;;;5.53;2.78;;;31.10;36.10;;;;;;6217089;22;88310;-72
2023/06/15 10:56:53;;;;;;;4.75;3.15;;;30.80;33.20;;;;;;6216032;22;87458;-72
2023/06/15 10:59:45;;;;;;;4.43;3.22;;;30.40;35.20;;;;;;6218955;22;86974;-69
2023/06/15 11:02:29;;;;;;;6.15;2.50;;;30.20;35.00;;;;;;6217324;22;87981;-71
2023/06/15 11:05:08;;;;;;;4.18;2.13;;;30.20;37.40;;;;;;6219662;22;87345;-70
2023/06/15 11:07:40;;;;;;;5.30;2.53;;;30.20;36.20;;;;;;6193433;22;87412;-70
2023/06/15 11:10:22;;;;;;;4.00;2.58;;;30.10;38.90;;;;;;6219459;22;87554;-70
2023/06/15 11:12:59;;;;;;;5.50;2.80;;;30.20;37.60;;;;;;6218657;22;88424;-71
2023/06/15 11:15:34;;;;;;;4.65;3.70;;;30.20;37.70;;;;;;6218212;22;87446;-71
2023/06/15 11:18:14;;;;;;;6.35;3.00;;;30.00;35.20;;;;;;6217996;22;87142;-73
2023/06/15 11:20:56;;;;;;;7.22;2.88;;;30.10;39.40;;;;;;6219180;22;88875;-71
2023/06/15 11:23:24;;;;;;;5.10;2.97;;;30.20;37.40;;;;;;6221609;22;89207;-71
2023/06/15 11:25:54;;;;;;;4.78;2.85;;;30.00;38.20;;;;;;6222183;22;87263;-70
2023/06/15 11:28:22;;;;;;;8.40;3.05;;;30.00;39.00;;;;;;6220001;22;86948;-71
2023/06/15 11:31:01;;;;;;;5.75;2.65;;;29.80;39.20;;;;;;6222240;22;87523;-71
2023/06/15 11:33:36;;;;;;;5.30;2.53;;;29.90;39.90;;;;;;6221654;22;87164;-72
2023/06/15 11:36:06;;;;;;;;;;;29.80;37.60;;;;;;6222503;22;87359;-72
2023/06/15 11:38:33;;;;;;;6.07;2.72;;;29.70;40.30;;;;;;6224264;22;86625;-71
2023/06/15 11:41:03;;;;;;;5.18;2.63;;;29.70;38.10;;;;;;6221749;22;87997;-72
2023/06/15 11:43:42;;;;;;;7.15;2.60;;;29.70;38.70;;;;;;6219045;22;87935;-71
2023/06/15 11:46:17;;;;;;;5.25;2.67;;;29.80;36.40;;;;;;6221332;22;88259;-71
2023/06/15 11:48:44;;;;;;;5.10;2.72;;;29.80;35.30;;;;;;6222265;22;86869;-71
2023/06/15 11:51:11;;;;;;;4.32;2.63;;;29.80;36.50;;;;;;6221834;22;88122;-70
2023/06/15 11:53:39;;;;;;;4.20;2.60;;;29.90;36.20;;;;;;6221876;22;88091;-71
2023/06/15 11:56:14;;;;;;;6.75;2.72;;;29.80;35.80;;;;;;6221299;22;87230;-71
2023/06/15 11:58:40;;;;;;;4.78;2.55;;;29.80;37.60;;;;;;6220221;22;87135;-71
2023/06/15 12:01:07;;;;;;;7.38;3.22;;;29.80;38.20;;;;;;6221241;22;88089;-71
2023/06/15 12:03:37;;;;;;;8.73;2.00;;;29.70;33.60;;;;;;6222002;22;88105;-70
2023/06/15 12:06:03;;;;;;;5.00;2.40;;;29.70;37.00;;;;;;6222158;22;87416;-70
2023/06/15 12:08:31;;;;;;;4.90;2.45;;;29.60;36.00;;;;;;6221748;22;87550;-70
2023/06/15 12:10:56;;;;;;;8.15;2.45;;;29.70;38.30;;;;;;6220939;22;89150;-72
2023/06/15 12:13:31;;;;;;;6.03;2.22;;;29.60;37.40;;;;;;6219417;22;87182;-72
2023/06/15 12:15:59;;;;;;;5.25;2.55;;;29.70;39.70;;;;;;6222927;22;87232;-71
2023/06/15 12:18:26;;;;;;;5.65;2.65;;;29.70;38.40;;;;;;6223178;22;87509;-70
2023/06/15 12:20:52;;;;;;;6.55;2.78;;;29.60;37.40;;;;;;6222537;22;87310;-71
2023/06/15 12:23:28;;;;;;;8.57;2.72;;;29.60;38.10;;;;;;6222891;22;86936;-70
2023/06/15 12:25:56;;;;;;;6.03;2.53;;;29.70;37.90;;;;;;6222567;22;87203;-71
2023/06/15 12:28:23;;;;;;;7.00;2.38;;;29.70;36.80;;;;;;6223783;22;86509;-71
2023/06/15 12:30:50;;;;;;;4.57;3.03;;;29.50;36.30;;;;;;6193273;22;88533;-71
2023/06/15 12:33:27;;;;;;;6.30;2.50;;;29.30;38.90;;;;;;6222586;22;87499;-73
2023/06/15 12:35:54;;;;;;;4.13;2.67;;;29.40;38.20;;;;;;6222153;22;87896;-73
2023/06/15 12:38:22;;;;;;;6.95;2.60;;;29.60;37.10;;;;;;6223085;22;86964;-72
2023/06/15 12:40:48;;;;;;;4.38;2.08;;;29.50;37.30;;;;;;6195535;22;88546;-70
2023/06/15 12:43:16;;;;;;;7.20;2.80;;;29.60;39.10;;;;;;6222882;22;88191;-70
2023/06/15 12:45:42;;;;;;;3.38;2.22;;;29.70;38.80;;;;;;6220564;22;87036;-72
2023/06/15 12:48:08;;;;;;;3.65;2.35;;;29.50;38.70;;;;;;6223367;22;87316;-70
2023/06/15 12:50:33;;;;;;;4.78;2.50;;;29.50;38.80;;;;;;6222298;22;87608;-72
2023/06/15 12:52:59;;;;;;;4.18;2.28;;;29.60;35.80;;;;;;6223176;22;88503;-70
2023/06/15 12:55:26;;;;;;;7.13;2.30;;;29.40;36.70;;;;;;6222703;22;87156;-70
2023/06/15 12:57:52;;;;;;;5.85;2.40;;;29.20;36.60;;;;;;6222805;22;87095;-71
2023/06/15 13:00:19;;;;;;;6.70;2.35;;;29.00;37.40;;;;;;6219638;22;91494;-72
2023/06/15 13:02:45;;;;;;;7.60;2.50;;;29.00;37.90;;;;;;6222286;22;88245;-73
2023/06/15 13:05:10;;;;;;;5.20;2.65;;;29.10;38.00;;;;;;6222789;22;87283;-72
2023/06/15 13:07:37;;;;;;;4.85;2.58;;;29.30;40.40;;;;;;6222859;22;87224;-73
2023/06/15 13:10:04;;;;;;;3.50;2.55;;;29.40;38.20;;;;;;6222330;22;88214;-72
2023/06/15 13:12:29;;;;;;;5.35;2.58;;;29.40;36.90;;;;;;6222672;22;87653;-70
2023/06/15 13:14:55;;;;;;;6.63;2.50;;;29.40;38.30;;;;;;6222235;22;88162;-70
2023/06/15 13:17:21;;;;;;;4.82;2.60;;;29.30;37.50;;;;;;6220830;22;86680;-73
2023/06/15 13:19:47;;;;;;;5.18;2.67;;;29.40;38.70;;;;;;6221992;22;87400;-70
2023/06/15 13:22:13;;;;;;;4.57;2.45;;;29.00;37.60;;;;;;6222991;22;88003;-71
2023/06/15 13:24:39;;;;;;;4.22;2.45;;;28.90;36.90;;;;;;6221774;22;88697;-70
2023/06/15 13:27:08;;;;;;;7.50;2.67;;;28.90;35.20;;;;;;6223165;22;87405;-70
2023/06/15 13:29:38;;;;;;;5.00;2.40;;;28.90;38.10;;;;;;6222503;22;87494;-70
2023/06/15 13:32:05;;;;;;;8.77;2.30;;;29.00;38.60;;;;;;6219822;22;88296;-71
2023/06/15 13:34:31;;;;;;;3.25;1.90;;;29.10;39.50;;;;;;6222676;22;87016;-71
2023/06/15 13:36:57;;;;;;;4.32;2.40;;;28.90;37.50;;;;;;6222687;22;87040;-70
2023/06/15 13:39:23;;;;;;;6.63;2.67;;;29.00;40.00;;;;;;6222608;22;88156;-70
2023/06/15 13:41:49;;;;;;;4.97;2.58;;;29.00;36.30;;;;;;6223095;22;87486;-70
2023/06/15 13:44:15;;;;;;;4.82;2.22;;;28.80;36.20;;;;;;6222789;22;86976;-70
2023/06/15 13:46:41;;;;;;;8.20;2.55;;;28.80;37.30;;;;;;6223288;22;87094;-69
2023/06/15 13:49:07;;;;;;;3.97;1.83;;;28.70;36.90;;;;;;6219295;22;89894;-70
2023/06/15 13:51:38;;;;;;;4.70;2.45;;;28.60;37.70;;;;;;6222758;22;87996;-73
2023/06/15 13:54:04;;;;;;;9.10;3.05;;;28.60;35.80;;;;;;6222534;22;87311;-72
2023/06/15 13:56:30;;;;;;;3.42;2.42;;;28.50;38.10;;;;;;6222419;22;87404;-70
2023/06/15 13:58:56;;;;;;;6.53;2.58;;;28.60;39.40;;;;;;6222589;22;88274;-69
2023/06/15 14:01:25;;;;;;;5.70;2.58;;;28.70;36.90;;;;;;6221815;22;87839;-70
2023/06/15 14:03:52;;;;;;;4.68;2.28;;;28.70;37.50;;;;;;6220396;22;87049;-70
2023/06/15 14:06:20;;;;;;;4.30;2.80;;;28.60;35.10;;;;;;6222743;22;86317;-70
2023/06/15 14:08:47;;;;;;;6.18;3.03;;;28.50;35.50;;;;;;6221810;22;87370;-71
2023/06/15 14:11:17;;;;;;;4.85;2.28;;;28.40;36.60;;;;;;6222515;22;87475;-71
2023/06/15 14:13:48;;;;;;;4.93;2.58;;;28.30;36.60;;;;;;6221932;22;88559;-70
2023/06/15 14:16:15;;;;;;;6.55;1.73;;;28.40;39.00;;;;;;6223160;22;86912;-69
2023/06/15 14:18:41;;;;;;;9.90;2.30;;;28.40;37.70;;;;;;6219490;22;87412;-69
2023/06/15 14:21:07;;;;;;;2.88;1.88;;;28.60;38.40;;;;;;6221786;22;87280;-73
2023/06/15 14:23:32;;;;;;;7.18;2.38;;;28.70;38.90;;;;;;6222729;22;87422;-71
2023/06/15 14:25:59;;;;;;;4.20;2.40;;;28.70;39.50;;;;;;6222645;22;87019;-71
2023/06/15 14:28:25;;;;;;;8.52;2.47;;;28.70;38.30;;;;;;6222145;22;87917;-72
2023/06/15 14:30:51;;;;;;;3.25;2.10;;;28.60;35.80;;;;;;6221031;22;87614;-74
2023/06/15 14:33:16;;;;;;;7.15;2.40;;;28.50;39.00;;;;;;6220491;22;86940;-72
2023/06/15 14:35:42;;;;;;;3.83;1.88;;;28.40;35.90;;;;;;6217526;22;87928;-73
2023/06/15 14:38:08;;;;;;;5.85;2.20;;;28.30;38.30;;;;;;6218623;22;89004;-73
2023/06/15 14:40:33;;;;;;;4.22;1.60;;;28.30;37.30;;;;;;6221904;22;88675;-71
2023/06/15 14:42:59;;;;;;;4.75;2.47;;;28.40;37.10;;;;;;6222412;22;87255;-72
2023/06/15 14:45:25;;;;;;;4.75;2.20;;;28.40;35.90;;;;;;6222400;22;87398;-73
2023/06/15 14:47:52;;;;;;;5.68;2.53;;;28.40;36.70;;;;;;6221976;22;87484;-75
2023/06/15 14:50:18;;;;;;;4.00;1.88;;;28.30;37.30;;;;;;6219663;22;88493;-72
2023/06/15 14:52:44;;;;;;;5.05;2.17;;;28.30;37.70;;;;;;6222692;22;86892;-72
2023/06/15 14:55:11;;;;;;;3.17;2.00;;;28.30;38.30;;;;;;6223135;22;86549;-71
2023/06/15 14:57:36;;;;;;;4.53;2.55;;;28.40;37.20;;;;;;6221700;22;87331;-73
2023/06/15 15:00:06;;;;;;;5.95;2.13;;;28.40;36.10;;;;;;6221667;22;87818;-75
2023/06/15 15:02:32;;;;;;;7.53;2.45;;;28.20;35.70;;;;;;6221625;22;88330;-73
2023/06/15 15:04:58;;;;;;;5.32;1.55;;;28.10;38.70;;;;;;6222641;22;86931;-73
2023/06/15 15:07:24;;;;;;;3.85;1.58;;;28.10;35.50;;;;;;6219972;22;87824;-73
2023/06/15 15:09:50;;;;;;;6.40;2.53;;;27.90;35.10;;;;;;6221812;22;87037;-71
2023/06/15 15:12:15;;;;;;;4.00;2.08;;;27.80;35.20;;;;;;6220269;22;87227;-72
2023/06/15 15:14:41;;;;;;;7.85;3.03;;;27.80;35.70;;;;;;6195469;22;86985;-70
2023/06/15 15:17:07;;;;;;;4.93;2.40;;;27.80;35.90;;;;;;6221583;22;88044;-71
2023/06/15 15:19:32;;;;;;;6.78;2.03;;;27.80;35.80;;;;;;6222619;22;86990;-72
2023/06/15 15:21:59;;;;;;;4.95;2.25;;;27.80;35.50;;;;;;6219893;22;87023;-71
2023/06/15 15:24:25;;;;;;;6.68;1.70;;;27.70;37.90;;;;;;6222551;22;86918;-72
2023/06/15 15:26:50;;;;;;;5.97;1.80;;;27.70;37.10;;;;;;6221351;22;88240;-74
2023/06/15 15:29:16;;;;;;;7.95;2.55;;;27.70;36.10;;;;;;6221890;22;87118;-71
2023/06/15 15:31:42;;;;;;;5.32;2.22;;;27.70;37.00;;;;;;6222304;22;87405;-71
2023/06/15 15:34:07;;;;;;;5.28;2.22;;;27.60;36.70;;;;;;6222392;22;87330;-72
2023/06/15 15:36:33;;;;;;;3.70;2.20;;;27.60;37.40;;;;;;6221521;22;88463;-75
2023/06/15 15:38:59;;;;;;;3.08;2.03;;;27.60;36.70;;;;;;6219615;22;87967;-71
2023/06/15 15:41:25;;;;;;;4.28;1.88;;;27.70;36.80;;;;;;6221592;22;87044;-76
2023/06/15 15:43:52;;;;;;;2.58;1.70;;;27.70;36.30;;;;;;6218063;22;86510;-70
2023/06/15 15:46:17;;;;;;;3.70;1.90;;;27.50;36.40;;;;;;6218996;22;87715;-74
2023/06/15 15:48:44;;;;;;;4.68;1.90;;;27.50;37.10;;;;;;6220402;22;87890;-72
2023/06/15 15:51:10;;;;;;;6.47;1.85;;;27.50;37.70;;;;;;6220638;22;88258;-72
2023/06/15 15:53:35;;;;;;;10.35;1.75;;;27.50;37.60;;;;;;6220023;22;87037;-71
2023/06/15 15:56:01;;;;;;;6.97;1.88;;;27.50;37.40;;;;;;6221380;22;88251;-73
2023/06/15 15:58:27;;;;;;;5.97;2.15;;;27.50;37.20;;;;;;6221987;22;88242;-72
2023/06/15 16:00:52;;;;;;;3.83;1.83;;;27.60;37.60;;;;;;6222859;22;86951;-71
2023/06/15 16:03:18;;;;;;;3.97;1.98;;;27.60;37.80;;;;;;6222676;22;87686;-72